Time;durP1;ratioP1;P1;durP2;ratioP2;P2;SDS_P1;SDS_P2;PMS_P1;PMS_P2;Temp;Humidity;BMP_temperature;BMP_pressure;BME280_temperature;BME280_humidity;BME280_pressure;Samples;Min_cycle;Max_cycle;Signal;HPM_P1;HPM_P2
2022/07/12 00:02:01;;;;;;;15.63;5.13;;;;;;;23.36;75.73;100230.28;10297506;28;20061;-71
2022/07/12 00:07:02;;;;;;;30.25;5.45;;;;;;;23.31;76.20;100246.53;10296324;28;20069;-70
2022/07/12 00:12:03;;;;;;;52.92;5.53;;;;;;;23.26;76.67;100255.41;10295789;28;20046;-70
2022/07/12 00:17:04;;;;;;;16.88;5.47;;;;;;;23.29;76.44;100270.34;10296398;28;20038;-70
2022/07/12 00:22:05;;;;;;;28.45;6.32;;;;;;;23.09;76.85;100227.56;10296372;28;20081;-70
2022/07/12 00:27:06;;;;;;;14.38;5.28;;;;;;;23.37;76.69;100240.06;10295723;28;20447;-70
2022/07/12 00:32:07;;;;;;;16.92;5.30;;;;;;;23.41;76.85;100258.28;10295141;28;20094;-70
2022/07/12 00:37:08;;;;;;;19.17;6.00;;;;;;;23.46;77.28;100258.34;10297234;28;20914;-69
2022/07/12 00:42:09;;;;;;;20.63;5.47;;;;;;;23.43;76.84;100233.63;10340137;28;20154;-70
2022/07/12 00:47:32;;;;;;;82.38;12.10;;;;;;;22.90;78.53;100146.59;10294527;28;20045;-70
2022/07/12 00:52:35;;;;;;;19.02;7.20;;;;;;;23.38;77.04;100241.69;10314312;28;20046;-70
2022/07/12 00:57:37;;;;;;;53.00;8.65;;;;;;;23.52;77.28;100289.03;10334137;28;20077;-69
2022/07/12 01:02:39;;;;;;;28.05;7.00;;;;;;;22.84;77.28;100196.38;10333627;28;20045;-70
2022/07/12 01:07:40;;;;;;;50.53;8.77;;;;;;;23.48;77.71;100312.28;10365691;28;20038;-69
2022/07/12 01:12:41;;;;;;;50.47;9.38;;;;;;;23.41;78.03;100298.13;10366215;28;20042;-70
2022/07/12 01:17:44;;;;;;;34.00;6.95;;;;;;;23.40;79.22;100320.88;10335100;28;20270;-70
2022/07/12 01:22:59;;;;;;;16.33;5.07;;;;;;;23.44;79.32;100303.84;10333479;28;20093;-70
2022/07/12 01:28:00;;;;;;;11.18;4.93;;;;;;;23.58;78.17;100309.69;10332997;28;20050;-70
2022/07/12 01:33:01;;;;;;;54.53;8.18;;;;;;;23.62;78.47;100324.38;10333568;28;20569;-71
2022/07/12 01:38:02;;;;;;;23.60;5.50;;;;;;;23.62;78.31;100335.22;10332985;28;20074;-71
2022/07/12 01:43:03;;;;;;;41.40;6.72;;;;;;;23.57;78.46;100356.03;10333721;28;20490;-71
2022/07/12 01:48:04;;;;;;;45.78;7.07;;;;;;;23.55;78.67;100361.72;10333017;28;20054;-71
2022/07/12 01:53:07;;;;;;;60.60;7.53;;;;;;;23.43;78.52;100350.19;10332685;28;20092;-71
2022/07/12 01:58:09;;;;;;;19.95;5.53;;;;;;;23.58;78.19;100350.38;10333213;28;20046;-71
2022/07/12 02:03:09;;;;;;;6.63;3.85;;;;;;;23.06;76.95;100250.56;10331987;28;20042;-71
2022/07/12 02:08:10;;;;;;;42.63;6.72;;;;;;;23.63;77.25;100331.47;10332099;28;20049;-72
2022/07/12 02:13:11;;;;;;;29.40;6.65;;;;;;;23.75;79.91;100360.34;10333035;28;20046;-70
2022/07/12 02:18:12;;;;;;;17.77;5.68;;;;;;;23.53;84.47;100374.72;10332280;28;20042;-71
2022/07/12 02:23:13;;;;;;;14.27;4.93;;;;;;;23.36;87.96;100385.63;10331420;28;20042;-71
2022/07/12 02:28:14;;;;;;;13.38;5.47;;;;;;;22.65;90.78;100287.94;10331905;28;20038;-71
2022/07/12 02:33:15;;;;;;;14.85;6.25;;;;;;;23.06;92.37;100367.06;10331924;28;20089;-71
2022/07/12 02:38:16;;;;;;;11.13;5.97;;;;;;;23.07;93.44;100392.28;10331189;28;20081;-71
2022/07/12 02:43:17;;;;;;;15.20;6.28;;;;;;;22.94;95.07;100363.59;10330982;28;20051;-71
2022/07/12 02:48:18;;;;;;;18.33;6.65;;;;;;;23.11;96.55;100394.22;10331567;28;20141;-71
2022/07/12 02:53:19;;;;;;;21.02;6.60;;;;;;;23.06;96.64;100374.38;10331105;28;20042;-71
2022/07/12 02:58:20;;;;;;;15.02;6.00;;;;;;;22.38;97.02;100265.34;10331388;28;20046;-71
2022/07/12 03:03:21;;;;;;;15.13;6.68;;;;;;;23.08;97.88;100375.75;10331229;28;20088;-71
2022/07/12 03:08:22;;;;;;;16.42;6.53;;;;;;;22.93;98.20;100348.44;10331713;28;20046;-71
2022/07/12 03:13:23;;;;;;;29.30;7.00;;;;;;;23.21;98.90;100382.69;10329989;28;20042;-71
2022/07/12 03:18:24;;;;;;;17.17;7.00;;;;;;;23.34;99.19;100384.25;10330341;28;20053;-71
2022/07/12 03:23:25;;;;;;;20.13;6.80;;;;;;;23.03;99.57;100329.63;10330978;28;20050;-71
2022/07/12 03:28:26;;;;;;;18.13;7.25;;;;;;;23.38;99.38;100382.66;10330341;28;20499;-71
2022/07/12 03:33:26;;;;;;;15.98;7.43;;;;;;;22.99;99.60;100314.94;10331231;28;20081;-71
2022/07/12 03:38:27;;;;;;;12.05;6.45;;;;;;;23.59;100.00;100400.00;10330839;28;20054;-71
2022/07/12 03:43:28;;;;;;;16.35;6.38;;;;;;;23.36;99.01;100354.97;10330460;28;20457;-71
2022/07/12 03:48:29;;;;;;;12.82;6.18;;;;;;;23.53;98.73;100388.28;10337810;28;20104;-70
2022/07/12 03:53:30;;;;;;;9.65;6.53;;;;;;;23.58;98.92;100399.19;10336978;28;20387;-71
2022/07/12 03:58:30;;;;;;;8.30;5.97;;;;;;;23.65;98.98;100397.09;10337021;28;20065;-71
2022/07/12 04:03:31;;;;;;;8.85;5.38;;;;;;;23.79;98.49;100407.59;10337122;28;20053;-71
2022/07/12 04:08:32;;;;;;;10.50;6.18;;;;;;;24.16;97.33;100410.41;10336319;28;20494;-71
2022/07/12 04:13:33;;;;;;;11.18;5.00;;;;;;;23.69;94.50;100326.88;10336496;28;20073;-71
2022/07/12 04:18:34;;;;;;;19.33;9.57;;;;;;;24.38;93.49;100388.66;10336956;28;20072;-71
2022/07/12 04:23:35;;;;;;;7.32;4.95;;;;;;;24.44;89.87;100297.22;10336369;28;20073;-71
2022/07/12 04:28:36;;;;;;;10.25;4.70;;;;;;;26.06;83.52;100391.50;10324625;28;20042;-72
2022/07/12 04:33:36;;;;;;;6.13;4.38;;;;;;;26.57;78.85;100375.22;10353180;28;20077;-70
2022/07/12 04:38:37;;;;;;;8.55;4.40;;;;;;;26.39;79.12;100387.47;10335340;28;20049;-70
2022/07/12 04:43:38;;;;;;;7.10;4.45;;;;;;;25.98;78.92;100396.66;10328750;28;20047;-73
2022/07/12 04:48:39;;;;;;;8.98;4.63;;;;;;;25.77;78.56;100401.19;10306835;28;20462;-71
2022/07/12 04:53:39;;;;;;;8.05;4.95;;;;;;;24.96;78.88;100308.13;10360337;28;20042;-71
2022/07/12 04:58:40;;;;;;;7.25;4.78;;;;;;;25.25;78.97;100390.13;10333238;28;20043;-71
2022/07/12 05:03:41;;;;;;;6.00;4.30;;;;;;;25.21;78.70;100401.78;10333757;28;20049;-70
2022/07/12 05:08:42;;;;;;;8.60;4.50;;;;;;;25.11;78.45;100399.78;10334644;28;20062;-70
2022/07/12 05:13:42;;;;;;;7.68;4.97;;;;;;;25.05;78.29;100412.53;10333752;28;20052;-70
2022/07/12 05:18:43;;;;;;;8.40;4.38;;;;;;;25.10;77.86;100402.75;10334107;28;20414;-70
2022/07/12 05:23:44;;;;;;;8.15;4.65;;;;;;;25.18;77.39;100413.19;10333848;28;20486;-70
2022/07/12 05:28:45;;;;;;;8.35;4.32;;;;;;;25.25;76.20;100417.31;10333394;28;20073;-69
2022/07/12 05:33:46;;;;;;;6.25;4.70;;;;;;;24.77;75.51;100312.38;10333382;28;20054;-70
2022/07/12 05:38:46;;;;;;;6.75;4.30;;;;;;;25.58;73.76;100428.88;10333434;28;20050;-71
2022/07/12 05:43:47;;;;;;;7.45;4.60;;;;;;;25.84;73.74;100423.56;10333361;28;20034;-70
2022/07/12 05:48:48;;;;;;;5.75;4.45;;;;;;;26.87;70.39;100428.06;10333188;28;20049;-70
2022/07/12 05:53:49;;;;;;;5.93;4.05;;;;;;;26.68;66.78;100310.63;10332932;28;20401;-69
2022/07/12 05:58:50;;;;;;;5.70;4.10;;;;;;;27.42;66.06;100409.13;10332284;28;20391;-70
2022/07/12 06:03:51;;;;;;;6.88;4.13;;;;;;;27.87;64.46;100415.50;10332394;28;20045;-70
2022/07/12 06:08:52;;;;;;;10.02;4.28;;;;;;;27.91;63.55;100416.56;10331478;28;20125;-70
2022/07/12 06:13:53;;;;;;;5.97;4.20;;;;;;;27.98;63.82;100426.09;10331685;28;20038;-70
2022/07/12 06:18:53;;;;;;;9.70;4.50;;;;;;;27.99;62.55;100424.19;10332309;28;20133;-70
2022/07/12 06:23:54;;;;;;;7.60;3.97;;;;;;;27.81;62.26;100403.81;10331550;28;20505;-71
2022/07/12 06:28:55;;;;;;;7.60;3.90;;;;;;;27.91;60.74;100375.63;10331774;28;20046;-71
2022/07/12 06:33:56;;;;;;;8.55;4.40;;;;;;;28.45;59.18;100410.25;10363143;28;20066;-70
2022/07/12 06:38:57;;;;;;;10.98;3.95;;;;;;;28.85;57.92;100419.19;10331315;28;20093;-70
2022/07/12 06:43:57;;;;;;;8.90;4.55;;;;;;;29.02;57.36;100362.16;10331679;28;20129;-71
2022/07/12 06:48:58;;;;;;;5.47;3.88;;;;;;;29.41;55.83;100404.94;10331690;28;20046;-70
2022/07/12 06:53:59;;;;;;;8.05;3.88;;;;;;;29.00;54.86;100334.25;10331411;28;20047;-70
2022/07/12 06:59:00;;;;;;;9.15;4.20;;;;;;;29.57;53.85;100409.09;10330993;28;20050;-70
2022/07/12 07:04:00;;;;;;;6.13;3.78;;;;;;;29.75;53.05;100399.31;10330641;28;20049;-71
2022/07/12 07:09:02;;;;;;;8.88;3.95;;;;;;;29.94;52.68;100403.97;10330718;28;20048;-70
2022/07/12 07:14:03;;;;;;;5.63;3.88;;;;;;;29.93;52.54;100389.47;10331099;28;20532;-70
2022/07/12 07:19:05;;;;;;;6.63;3.97;;;;;;;30.13;52.77;100391.09;10332004;28;20070;-71
2022/07/12 07:24:06;;;;;;;6.50;3.77;;;;;;;29.50;50.78;100287.41;10338567;28;20533;-70
2022/07/12 07:34:26;;;;;;;9.57;3.40;;;;;;;29.93;49.03;100273.63;10338744;28;20057;-71
2022/07/12 07:39:27;;;;;;;11.80;4.50;;;;;;;30.84;47.71;100377.34;10337606;28;20122;-71
2022/07/12 07:44:28;;;;;;;6.80;3.50;;;;;;;30.98;46.34;100358.16;10337339;28;20140;-71
2022/07/12 07:49:29;;;;;;;4.82;3.20;;;;;;;30.87;46.46;100363.84;10337797;28;20038;-70
2022/07/12 07:54:29;;;;;;;7.18;3.15;;;;;;;30.74;46.05;100356.38;10337507;28;20585;-71
2022/07/12 07:59:30;;;;;;;11.77;3.28;;;;;;;30.69;45.88;100334.53;10337079;28;20038;-71
2022/07/12 08:04:31;;;;;;;11.93;3.35;;;;;;;30.66;46.40;100322.25;10337688;28;20145;-73
2022/07/12 08:09:32;;;;;;;5.13;3.30;;;;;;;30.80;45.25;100344.22;10337502;28;20494;-71
2022/07/12 08:14:32;;;;;;;5.75;3.28;;;;;;;30.66;44.99;100307.72;10336244;28;20133;-71
2022/07/12 08:19:33;;;;;;;8.10;3.70;;;;;;;30.75;44.27;100327.84;10337459;28;20617;-70
2022/07/12 08:24:34;;;;;;;5.75;3.10;;;;;;;30.56;45.13;100338.88;10336515;28;20081;-70
2022/07/12 08:29:35;;;;;;;9.82;3.83;;;;;;;30.42;45.51;100319.69;10335698;28;20039;-70
2022/07/12 08:34:36;;;;;;;7.18;3.55;;;;;;;30.59;44.30;100342.97;10336327;28;20066;-72
2022/07/12 08:39:37;;;;;;;27.02;5.28;;;;;;;29.83;45.55;100230.81;10335587;28;20450;-71
2022/07/12 08:44:39;;;;;;;12.50;4.38;;;;;;;30.47;45.42;100335.22;10335666;28;20117;-71
2022/07/12 08:49:40;;;;;;;13.50;4.25;;;;;;;30.50;45.44;100336.53;10334910;28;20513;-71
2022/07/12 08:54:40;;;;;;;6.57;3.50;;;;;;;30.34;44.89;100322.31;10334795;28;20121;-72
2022/07/12 08:59:47;;;;;;;9.63;4.03;;;;;;;30.35;43.09;100323.91;10335745;28;20137;-71
2022/07/12 09:04:48;;;;;;;28.02;5.03;;;;;;;30.54;43.52;100297.25;10334535;28;20077;-71
2022/07/12 09:09:49;;;;;;;8.60;3.35;;;;;;;30.74;42.99;100282.34;10334394;28;20129;-70
2022/07/12 09:14:53;;;;;;;6.97;3.33;;;;;;;30.98;42.21;100286.84;10334522;28;20042;-72
2022/07/12 09:19:55;;;;;;;7.63;2.80;;;;;;;31.37;41.14;100305.50;10334918;28;20133;-72
2022/07/12 09:24:56;;;;;;;5.40;2.83;;;;;;;31.66;40.32;100291.41;10334303;28;20054;-73
2022/07/12 09:29:57;;;;;;;9.88;3.33;;;;;;;31.59;40.67;100288.25;10321485;28;20034;-72
2022/07/12 09:40:20;;;;;;;16.60;3.88;;;;;;;31.60;40.48;100276.97;10332173;28;20137;-73
2022/07/12 09:45:21;;;;;;;9.63;3.33;;;;;;;31.67;39.92;100273.00;10315795;28;20046;-72
2022/07/12 09:50:22;;;;;;;9.25;3.40;;;;;;;30.98;39.23;100155.97;10299088;28;20058;-70
2022/07/12 09:55:25;;;;;;;7.15;3.10;;;;;;;31.63;38.96;100230.81;10325452;28;20417;-72
2022/07/12 10:00:26;;;;;;;8.20;3.08;;;;;;;32.23;39.33;100242.19;10325354;28;20490;-72
2022/07/12 10:05:29;;;;;;;7.50;3.33;;;;;;;31.72;37.99;100150.09;10325305;28;20077;-73
2022/07/12 10:10:31;;;;;;;7.28;3.30;;;;;;;31.63;38.25;100173.16;10319633;28;20077;-73
2022/07/12 10:15:33;;;;;;;21.57;3.17;;;;;;;32.02;38.57;100257.59;10327244;28;20042;-72
2022/07/12 10:20:42;;;;;;;124.93;11.63;;;;;;;31.65;38.34;100201.09;10324948;28;20034;-71
2022/07/12 10:25:43;;;;;;;8.55;3.47;;;;;;;31.88;38.73;100240.34;10324966;28;20478;-73
2022/07/12 10:30:47;;;;;;;6.35;2.83;;;;;;;31.94;38.73;100208.91;10324319;28;20069;-72
2022/07/12 10:36:06;;;;;;;10.68;3.55;;;;;;;32.36;38.75;100232.22;10319937;28;20068;-72
2022/07/12 10:41:18;;;;;;;5.53;3.40;;;;;;;32.53;38.29;100220.53;10324581;28;20051;-72
2022/07/12 10:46:23;;;;;;;;;;;;;;;32.74;37.63;100221.56;10322183;28;20510;-71
2022/07/12 10:51:24;;;;;;;6.35;3.10;;;;;;;32.17;38.18;100202.25;10323211;28;19918;-70
2022/07/12 10:56:26;;;;;;;6.97;2.80;;;;;;;31.48;37.28;100105.72;10326053;28;20491;-70
2022/07/12 11:01:29;;;;;;;21.67;3.67;;;;;;;31.33;37.66;100123.34;10335458;28;20125;-70
2022/07/12 11:06:30;;;;;;;7.53;3.20;;;;;;;31.02;38.33;100087.59;10328449;28;20414;-71
2022/07/12 11:11:39;;;;;;;6.30;3.00;;;;;;;31.65;38.43;100223.06;10332220;28;20042;-73
2022/07/12 11:16:44;;;;;;;9.73;4.07;;;;;;;30.38;38.01;100010.91;10332356;28;20030;-72
2022/07/12 11:21:46;;;;;;;14.63;3.65;;;;;;;31.53;38.54;100190.66;10332551;28;20507;-70
2022/07/12 11:26:50;;;;;;;7.20;2.90;;;;;;;31.52;37.36;100197.28;10331362;28;20046;-71
2022/07/12 11:32:07;;;;;;;7.35;2.97;;;;;;;30.99;37.64;100107.41;10328723;28;20518;-70
2022/07/12 11:37:07;;;;;;;4.95;2.90;;;;;;;31.42;38.83;100184.63;10331428;28;20049;-70
2022/07/12 11:42:12;;;;;;;6.25;2.70;;;;;;;31.53;39.31;100171.44;10330683;28;20049;-70
2022/07/12 11:47:14;;;;;;;8.93;3.10;;;;;;;31.93;38.20;100191.63;10330493;28;20038;-70
2022/07/12 11:52:17;;;;;;;7.80;2.88;;;;;;;32.53;37.18;100179.28;10354405;28;20042;-70
2022/07/12 11:57:25;;;;;;;13.60;3.90;;;;;;;33.17;36.49;100181.50;10332821;28;20065;-71
2022/07/12 12:02:28;;;;;;;7.45;3.00;;;;;;;33.47;34.41;100181.66;10328847;28;20086;-72
2022/07/12 12:07:29;;;;;;;7.40;3.00;;;;;;;33.48;35.36;100172.28;10325042;28;20548;-72
2022/07/12 12:12:47;;;;;;;11.50;3.10;;;;;;;33.25;35.34;100196.41;10325412;28;20049;-70
2022/07/12 12:18:06;;;;;;;6.43;2.95;;;;;;;32.88;36.36;100187.63;10333728;28;20112;-70
2022/07/12 12:23:18;;;;;;;8.02;2.65;;;;;;;32.24;35.13;100106.38;10333902;28;20093;-70
2022/07/12 12:28:19;;;;;;;7.90;2.97;;;;;;;32.57;35.67;100194.00;10332365;28;20089;-72
2022/07/12 12:33:37;;;;;;;19.85;3.33;;;;;;;32.70;35.28;100198.59;10331133;28;20104;-72
2022/07/12 12:38:38;;;;;;;7.05;2.70;;;;;;;32.88;35.59;100176.63;10333578;28;20034;-71
2022/07/12 12:43:40;;;;;;;6.80;3.10;;;;;;;32.96;34.90;100178.53;10333241;28;20137;-72
2022/07/12 12:48:48;;;;;;;6.05;3.20;;;;;;;32.84;35.73;100184.69;10332228;28;20034;-71
2022/07/12 12:53:56;;;;;;;5.20;2.60;;;;;;;32.61;35.69;100173.00;10362712;28;20140;-71
2022/07/12 12:58:57;;;;;;;18.20;2.70;;;;;;;32.54;35.61;100174.59;10334746;28;20039;-71
2022/07/12 13:03:58;;;;;;;11.88;2.53;;;;;;;32.41;35.91;100160.63;10333298;28;20045;-71
2022/07/12 13:08:59;;;;;;;10.73;2.40;;;;;;;32.08;35.12;100091.47;10332583;28;20569;-72
2022/07/12 13:14:00;;;;;;;5.82;2.50;;;;;;;32.39;34.87;100063.91;10334173;28;20439;-71
2022/07/12 13:19:01;;;;;;;16.00;3.17;;;;;;;32.95;35.14;100172.25;10333162;28;20039;-71
2022/07/12 13:24:02;;;;;;;5.97;2.58;;;;;;;32.63;35.51;100173.47;10333853;28;20076;-71
2022/07/12 13:29:03;;;;;;;9.82;2.80;;;;;;;32.27;35.82;100154.41;10333653;28;20502;-71
2022/07/12 13:34:05;;;;;;;17.88;2.90;;;;;;;32.15;36.06;100156.97;10365062;28;20137;-73
2022/07/12 13:44:25;;;;;;;15.40;3.53;;;;;;;31.92;35.66;100175.44;10332850;28;20069;-72
2022/07/12 13:49:26;;;;;;;17.35;3.55;;;;;;;31.12;36.83;100055.25;10333014;28;20049;-72
2022/07/12 13:54:27;;;;;;;10.68;3.85;;;;;;;31.77;36.10;100169.22;10332159;28;20070;-71
2022/07/12 13:59:28;;;;;;;16.33;7.72;;;;;;;31.58;35.62;100169.38;10333508;28;20046;-70
2022/07/12 14:04:29;;;;;;;42.25;8.63;;;;;;;31.30;35.90;100133.00;10332096;28;20052;-70
2022/07/12 14:09:30;;;;;;;14.13;5.32;;;;;;;31.49;35.73;100167.72;10332752;28;20034;-71
2022/07/12 14:19:50;;;;;;;22.65;4.50;;;;;;;31.19;35.71;100155.50;10331778;28;20042;-69
2022/07/12 14:24:51;;;;;;;22.63;4.10;;;;;;;30.77;36.31;100114.47;10331799;28;20521;-71
2022/07/12 14:29:52;;;;;;;18.08;3.13;;;;;;;30.92;36.38;100149.78;10330968;28;20490;-71
2022/07/12 14:34:53;;;;;;;11.73;3.22;;;;;;;30.87;36.40;100165.53;10363002;28;20062;-71
2022/07/12 14:39:54;;;;;;;24.80;4.30;;;;;;;30.81;36.77;100164.88;10363436;28;20050;-72
2022/07/12 14:44:55;;;;;;;19.13;4.18;;;;;;;29.44;36.82;99952.03;10331197;28;20503;-70
2022/07/12 14:49:56;;;;;;;16.33;4.95;;;;;;;29.88;37.04;100033.53;10326146;28;20098;-74
2022/07/12 14:54:57;;;;;;;12.70;4.47;;;;;;;30.43;37.17;100128.63;10319790;28;20540;-70
2022/07/12 14:59:57;;;;;;;16.50;4.22;;;;;;;30.56;37.39;100162.63;10313799;28;20041;-72
2022/07/12 15:05:03;;;;;;;16.52;3.75;;;;;;;30.47;37.80;100162.53;10363219;28;20142;-72
2022/07/12 15:10:04;;;;;;;13.40;3.72;;;;;;;30.29;38.44;100156.03;10321472;28;20121;-70
2022/07/12 15:15:05;;;;;;;16.60;4.28;;;;;;;30.17;39.26;100164.72;10326288;28;20042;-72
2022/07/12 15:20:07;;;;;;;10.20;3.20;;;;;;;30.10;39.16;100179.97;10330430;28;20490;-69
2022/07/12 15:25:08;;;;;;;10.80;3.60;;;;;;;29.93;39.28;100162.16;10327923;28;20041;-71
2022/07/12 15:30:10;;;;;;;11.43;3.63;;;;;;;29.96;39.30;100180.72;10361556;28;20058;-68
2022/07/12 15:35:11;;;;;;;13.32;3.90;;;;;;;29.60;39.79;100136.72;10329600;28;20093;-69
2022/07/12 15:40:12;;;;;;;9.90;3.78;;;;;;;29.03;39.86;100062.97;10331962;28;20089;-70
2022/07/12 15:45:13;;;;;;;28.70;4.07;;;;;;;29.54;40.64;100178.97;10337973;28;20043;-70
2022/07/12 15:50:13;;;;;;;9.80;3.78;;;;;;;29.52;40.82;100181.97;10339195;28;20034;-68
2022/07/12 15:55:14;;;;;;;11.75;3.58;;;;;;;29.23;41.15;100156.75;10297186;28;20549;-68
2022/07/12 16:00:15;;;;;;;32.80;4.55;;;;;;;28.62;41.74;100077.19;10306708;28;20034;-69
2022/07/12 16:05:16;;;;;;;24.92;5.88;;;;;;;29.11;41.75;100163.47;10335559;28;20058;-70
2022/07/12 16:10:17;;;;;;;11.95;4.82;;;;;;;29.06;42.03;100157.28;10333173;28;20390;-71
2022/07/12 16:15:18;;;;;;;10.60;4.32;;;;;;;29.05;42.25;100174.81;10316155;28;20047;-71
2022/07/12 16:20:19;;;;;;;8.82;4.38;;;;;;;28.97;42.51;100181.69;10327087;28;20376;-70
2022/07/12 16:25:20;;;;;;;10.32;5.60;;;;;;;28.23;42.77;100083.69;10336005;28;20038;-71
2022/07/12 16:30:23;;;;;;;12.15;5.40;;;;;;;28.62;43.29;100166.56;10336734;28;20038;-71
2022/07/12 16:35:24;;;;;;;15.82;6.00;;;;;;;28.59;43.14;100169.91;10335736;28;20054;-70
2022/07/12 16:40:25;;;;;;;18.70;6.03;;;;;;;28.50;43.71;100175.19;10319559;28;20058;-71
2022/07/12 16:45:28;;;;;;;16.27;6.78;;;;;;;28.30;43.82;100151.63;10333938;28;20133;-70
2022/07/12 16:50:29;;;;;;;;;;;;;;;28.55;43.54;100190.72;10329907;28;20046;-71
2022/07/12 16:55:30;;;;;;;14.73;6.60;;;;;;;27.79;43.85;100124.88;10333769;28;20366;-71
2022/07/12 17:00:30;;;;;;;19.10;7.32;;;;;;;28.25;44.41;100192.66;10334709;28;20490;-71
2022/07/12 17:05:31;;;;;;;14.07;5.78;;;;;;;28.04;44.59;100186.59;10334771;28;20045;-71
2022/07/12 17:10:32;;;;;;;10.35;5.25;;;;;;;27.30;44.82;100074.78;10334692;28;20038;-71
2022/07/12 17:15:33;;;;;;;18.13;6.90;;;;;;;28.09;44.87;100202.09;10334001;28;20525;-71
2022/07/12 17:20:35;;;;;;;11.27;5.88;;;;;;;28.05;45.03;100203.78;10333767;28;20045;-71
2022/07/12 17:25:36;;;;;;;15.82;5.72;;;;;;;27.99;45.27;100220.22;10334045;28;20038;-71
2022/07/12 17:30:37;;;;;;;9.77;4.45;;;;;;;26.59;45.56;99993.53;10333221;28;20046;-71
2022/07/12 17:35:39;;;;;;;9.20;4.28;;;;;;;27.66;45.38;100180.88;10334234;28;20064;-71
2022/07/12 17:40:40;;;;;;;8.55;4.32;;;;;;;27.84;45.61;100205.88;10333550;28;20133;-69
2022/07/12 17:45:41;;;;;;;11.07;4.43;;;;;;;27.84;45.61;100216.81;10327484;28;20516;-69
2022/07/12 17:50:42;;;;;;;12.90;3.67;;;;;;;27.66;46.09;100207.38;10332662;28;20132;-72
2022/07/12 17:55:43;;;;;;;13.82;4.20;;;;;;;27.41;46.04;100175.66;10332528;28;20046;-71
2022/07/12 18:00:44;;;;;;;7.00;3.50;;;;;;;27.60;46.25;100212.03;10325263;28;20034;-72
2022/07/12 18:05:45;;;;;;;9.10;4.60;;;;;;;27.56;46.36;100216.44;10328926;28;20100;-71
2022/07/12 18:10:46;;;;;;;9.32;4.25;;;;;;;27.49;46.66;100215.94;10325015;28;20502;-70
2022/07/12 18:15:46;;;;;;;10.05;4.28;;;;;;;27.37;46.62;100185.47;10324325;28;20069;-71
2022/07/12 18:20:52;;;;;;;8.20;3.72;;;;;;;26.73;46.80;100089.09;10325194;28;20038;-72
2022/07/12 18:25:53;;;;;;;7.78;3.42;;;;;;;27.33;47.04;100190.69;10325948;28;20513;-69
2022/07/12 18:30:54;;;;;;;10.07;3.63;;;;;;;27.26;46.94;100188.28;10324778;28;20050;-69
2022/07/12 18:35:56;;;;;;;8.87;3.77;;;;;;;27.25;47.17;100185.81;10319791;28;20066;-71
2022/07/12 18:40:59;;;;;;;9.75;5.43;;;;;;;27.17;47.20;100189.97;10327905;28;20048;-71
2022/07/12 18:46:00;;;;;;;12.13;4.80;;;;;;;27.04;47.80;100185.09;10328617;28;20117;-70
2022/07/12 18:51:01;;;;;;;13.20;5.45;;;;;;;25.60;47.74;99963.47;10357250;28;20139;-70
2022/07/12 18:56:02;;;;;;;14.55;5.30;;;;;;;26.74;47.65;100156.91;10327778;28;20073;-71
2022/07/12 19:01:03;;;;;;;15.63;6.07;;;;;;;26.76;47.70;100168.34;10331250;28;20046;-71
2022/07/12 19:06:04;;;;;;;12.48;5.80;;;;;;;26.73;47.85;100187.19;10330745;28;20092;-71
2022/07/12 19:11:05;;;;;;;15.05;6.50;;;;;;;25.95;48.51;100055.09;10330443;28;20121;-71
2022/07/12 19:16:06;;;;;;;16.55;5.45;;;;;;;26.56;48.85;100179.34;10313374;28;20097;-70
2022/07/12 19:21:07;;;;;;;12.00;4.00;;;;;;;26.39;49.04;100172.28;10334882;28;20047;-70
2022/07/12 19:26:07;;;;;;;10.50;3.60;;;;;;;26.23;49.28;100148.91;10295289;28;20407;-70
2022/07/12 19:31:08;;;;;;;14.38;4.50;;;;;;;26.17;49.32;100155.47;10296779;28;20039;-71
2022/07/12 19:36:09;;;;;;;13.18;4.63;;;;;;;25.31;49.26;100042.09;10311585;28;20057;-70
2022/07/12 19:41:10;;;;;;;10.40;3.67;;;;;;;25.39;49.25;100069.56;10295070;28;20074;-71
2022/07/12 19:46:12;;;;;;;9.05;3.50;;;;;;;25.79;49.93;100173.19;10295715;28;20479;-70
2022/07/12 19:51:13;;;;;;;12.35;3.60;;;;;;;25.85;50.57;100199.34;10295623;28;20043;-72
2022/07/12 19:56:14;;;;;;;14.13;3.85;;;;;;;25.70;51.12;100191.97;10296390;28;20403;-70
2022/07/12 20:01:15;;;;;;;7.72;3.50;;;;;;;25.67;50.88;100206.13;10296125;28;20046;-70
2022/07/12 20:06:16;;;;;;;11.32;3.53;;;;;;;25.60;51.88;100202.84;10294961;28;20098;-70
2022/07/12 20:11:17;;;;;;;16.00;4.05;;;;;;;25.51;52.76;100216.97;10308354;28;20133;-70
2022/07/12 20:16:18;;;;;;;9.00;3.97;;;;;;;25.24;52.58;100162.81;10295312;28;20050;-70
2022/07/12 20:21:19;;;;;;;10.05;4.18;;;;;;;25.29;52.80;100197.38;10294829;28;20427;-70
2022/07/12 20:26:20;;;;;;;15.50;4.10;;;;;;;25.23;53.24;100203.88;10294837;28;20041;-71
2022/07/12 20:31:21;;;;;;;8.38;4.07;;;;;;;24.91;53.66;100166.78;10309505;28;20046;-70
2022/07/12 20:36:21;;;;;;;10.15;4.75;;;;;;;24.95;54.13;100177.94;10294368;28;20471;-70
2022/07/12 20:41:22;;;;;;;19.23;4.88;;;;;;;24.58;55.33;100141.69;10291998;28;20053;-70
2022/07/12 20:46:23;;;;;;;9.73;4.15;;;;;;;24.68;55.26;100181.66;10294370;28;20438;-70
2022/07/12 20:51:24;;;;;;;11.00;4.30;;;;;;;24.57;56.40;100169.13;10294463;28;20130;-70
2022/07/12 20:56:25;;;;;;;9.65;3.72;;;;;;;24.19;56.67;100105.91;10325515;28;20133;-70
2022/07/12 21:01:26;;;;;;;11.75;3.92;;;;;;;23.87;57.27;100093.28;10307965;28;20046;-71
2022/07/12 21:06:28;;;;;;;12.48;3.25;;;;;;;24.35;56.97;100183.66;10325994;28;20050;-70
2022/07/12 21:11:32;;;;;;;9.20;3.03;;;;;;;24.42;57.18;100202.44;10339621;28;20046;-71
2022/07/12 21:16:36;;;;;;;7.70;3.30;;;;;;;24.41;57.29;100183.66;10291944;28;20054;-70
2022/07/12 21:21:37;;;;;;;10.35;3.53;;;;;;;24.44;57.24;100178.56;10291333;28;20042;-71
2022/07/12 21:26:38;;;;;;;8.20;3.25;;;;;;;23.53;57.68;100049.34;10322983;28;20043;-70
2022/07/12 21:31:40;;;;;;;6.75;2.83;;;;;;;24.37;57.44;100177.94;10291409;28;20053;-70
2022/07/12 21:36:44;;;;;;;5.13;2.90;;;;;;;24.24;57.73;100148.56;10291970;28;20063;-70
2022/07/12 21:41:45;;;;;;;6.18;2.85;;;;;;;23.96;57.26;100118.03;10290150;28;20423;-70
2022/07/12 21:46:46;;;;;;;6.47;2.65;;;;;;;24.28;57.07;100174.91;10307286;28;20046;-70
2022/07/12 21:51:47;;;;;;;6.22;2.70;;;;;;;24.15;57.02;100154.50;10290321;28;20046;-70
2022/07/12 21:56:48;;;;;;;7.03;3.00;;;;;;;24.25;57.27;100182.78;10289762;28;20601;-71
2022/07/12 22:01:49;;;;;;;4.53;2.60;;;;;;;24.13;57.60;100172.91;10320985;28;20125;-71
2022/07/12 22:06:50;;;;;;;7.60;2.75;;;;;;;24.23;57.43;100185.75;10291000;28;20046;-70
2022/07/12 22:11:51;;;;;;;5.80;2.60;;;;;;;23.67;57.20;100109.38;10290217;28;20108;-70
2022/07/12 22:16:51;;;;;;;6.80;2.80;;;;;;;24.14;57.20;100180.00;10322099;28;20074;-70
2022/07/12 22:21:52;;;;;;;5.50;2.47;;;;;;;23.43;57.50;100077.22;10289736;28;20039;-70
2022/07/12 22:26:53;;;;;;;3.83;2.13;;;;;;;23.41;57.54;100065.81;10289849;28;20043;-72
2022/07/12 22:31:54;;;;;;;8.20;2.17;;;;;;;24.08;57.93;100185.63;10290100;28;20137;-72
2022/07/12 22:36:55;;;;;;;4.65;2.67;;;;;;;24.02;58.47;100173.13;10290339;28;20054;-72
2022/07/12 22:41:56;;;;;;;5.10;2.60;;;;;;;24.07;58.66;100173.97;10290219;28;20577;-72
2022/07/12 22:46:57;;;;;;;4.63;2.67;;;;;;;23.42;59.15;100072.88;10290313;28;20376;-72
2022/07/12 22:51:58;;;;;;;6.32;2.95;;;;;;;23.93;59.76;100153.78;10296670;28;20038;-72
2022/07/12 22:56:58;;;;;;;6.70;2.85;;;;;;;23.88;60.11;100148.34;10297464;28;20049;-72
2022/07/12 23:01:59;;;;;;;7.68;3.00;;;;;;;23.13;60.42;100018.16;10327899;28;20409;-72
2022/07/12 23:07:00;;;;;;;5.72;2.90;;;;;;;23.34;61.03;100048.16;10298510;28;20039;-72
2022/07/12 23:12:01;;;;;;;11.23;3.20;;;;;;;23.95;61.78;100154.34;10296716;28;20069;-72
2022/07/12 23:17:01;;;;;;;15.07;3.83;;;;;;;23.14;62.24;100024.41;10296133;28;20067;-72
2022/07/12 23:22:02;;;;;;;6.90;3.30;;;;;;;23.87;62.40;100152.13;10327927;28;20517;-72